LFOP 280730Z AUTO 07008KT 040V100 CAVOK 20/13 Q1017 TEMPO 1500 TSRAGR BKN007 BKN060CB

ElémentsDécodage
LFOP Station météo située sur l'aérodrome de ROUEN Vallée-de-Seine
280730Z émis le 28 du mois à 07h30 UTC
AUTO Bulletin édité par un automate
07008KT vent du 070°, 08 noeuds
040V100 vent de direction variable entre 040° et 100°
CAVOK Ceiling And Visibility OK
- Visibilité de 10 Km ou plus
- Pas de nuage au-dessous de 1500m ou au-dessous de l'altitude minimale du secteur la plus élevée (si>1500m) et absence de CB
- pas de temps présent significatif
20/13 température 20°C, point de rosée 13°C
 soit une humidité relative de 64%
Q1017 la pression au niveau de la mer (QNH) est de 1017 hPa
TEMPO fluctuation temporaire prévue
1500 visibilité horizontale de 1500 mètres
TSRAGR élement non décodé
BKN007 nuages morcelés (5/8 à 7/8) à 700 pieds
BKN060CB nuages morcelés (5/8 à 7/8) à 6000 pieds
 présence de cumulonimbus